Time;durP1;ratioP1;P1;durP2;ratioP2;P2;SDS_P1;SDS_P2;PMS_P1;PMS_P2;Temp;Humidity;BMP_temperature;BMP_pressure;BME280_temperature;BME280_humidity;BME280_pressure;Samples;Min_cycle;Max_cycle;Signal;HPM_P1;HPM_P2
2022/05/14 00:00:23;;;;;;;15.77;6.10;;;12.50;99.90;;;;;;5015934;28;20206;-84
2022/05/14 00:02:49;;;;;;;13.87;5.87;;;12.50;99.90;;;;;;5014643;28;20205;-83
2022/05/14 00:05:16;;;;;;;12.50;6.23;;;12.60;99.90;;;;;;5015418;28;20178;-83
2022/05/14 00:07:42;;;;;;;15.43;6.37;;;12.50;99.90;;;;;;5033097;28;20171;-84
2022/05/14 00:10:08;;;;;;;13.67;6.30;;;12.50;99.90;;;;;;5033612;28;20170;-84
2022/05/14 00:15:18;;;;;;;15.43;5.90;;;12.40;99.90;;;;;;5035932;28;20209;-83
2022/05/14 00:17:46;;;;;;;13.57;6.20;;;12.40;99.90;;;;;;5036569;28;20172;-83
2022/05/14 00:20:12;;;;;;;9.40;5.80;;;12.20;99.90;;;;;;5036645;28;20580;-84
2022/05/14 00:22:38;;;;;;;16.73;5.73;;;12.40;99.90;;;;;;5017782;28;20194;-84
2022/05/14 00:25:04;;;;;;;14.57;6.03;;;12.40;99.90;;;;;;5036052;28;20176;-83
2022/05/14 00:27:29;;;;;;;16.77;6.67;;;12.30;99.90;;;;;;5018590;28;20185;-84
2022/05/14 00:29:56;;;;;;;13.37;6.33;;;12.30;99.90;;;;;;5036270;28;20175;-83
2022/05/14 00:32:21;;;;;;;14.80;6.37;;;12.20;99.90;;;;;;5017764;28;20616;-82
2022/05/14 00:34:47;;;;;;;24.00;6.97;;;12.10;99.90;;;;;;5018210;28;20174;-84
2022/05/14 00:37:12;;;;;;;19.23;6.10;;;12.10;99.90;;;;;;5037051;28;20220;-83
2022/05/14 00:39:38;;;;;;;14.97;6.60;;;12.10;99.90;;;;;;5015976;28;20169;-84
2022/05/14 00:42:04;;;;;;;15.90;7.67;;;12.10;99.90;;;;;;5018264;28;20195;-83
2022/05/14 00:44:29;;;;;;;16.10;6.17;;;12.10;99.90;;;;;;5036704;28;20525;-83
2022/05/14 00:46:59;;;;;;;23.80;7.07;;;12.00;99.90;;;;;;5036703;28;20183;-83
2022/05/14 00:49:26;;;;;;;17.97;6.70;;;12.10;99.90;;;;;;5019112;28;20197;-84
2022/05/14 00:51:52;;;;;;;22.27;8.43;;;12.10;99.90;;;;;;5036109;28;20685;-83
2022/05/14 00:54:23;;;;;;;17.27;6.73;;;12.00;99.90;;;;;;5036393;28;20232;-83
2022/05/14 00:56:53;;;;;;;19.80;7.83;;;12.00;99.90;;;;;;5036563;28;20208;-83
2022/05/14 00:59:22;;;;;;;16.33;6.90;;;12.00;99.90;;;;;;5019205;28;20587;-85
2022/05/14 01:01:48;;;;;;;15.23;7.13;;;12.00;99.90;;;;;;5018112;28;20178;-83
2022/05/14 01:04:15;;;;;;;14.37;6.77;;;11.90;99.90;;;;;;5036185;28;20173;-84
2022/05/14 01:07:05;;;;;;;21.77;7.27;;;11.90;99.90;;;;;;5036687;28;20542;-84
2022/05/14 01:09:32;;;;;;;16.40;7.13;;;11.90;99.90;;;;;;5018902;28;20643;-84
2022/05/14 01:11:57;;;;;;;13.73;6.90;;;11.80;99.90;;;;;;5017924;28;20174;-83
2022/05/14 01:14:23;;;;;;;18.13;7.33;;;11.80;99.90;;;;;;5035842;28;20190;-83
2022/05/14 01:16:51;;;;;;;18.40;7.57;;;12.00;99.90;;;;;;5036093;28;20210;-84
2022/05/14 01:19:17;;;;;;;18.03;8.33;;;12.00;99.90;;;;;;5018918;28;20589;-84
2022/05/14 01:22:12;;;;;;;21.60;7.17;;;11.70;99.90;;;;;;5017496;28;20178;-85
2022/05/14 01:27:52;;;;;;;22.67;7.97;;;11.80;99.90;;;;;;5035461;28;20653;-84
2022/05/14 01:30:19;;;;;;;18.40;8.13;;;11.70;99.90;;;;;;5036224;28;20205;-83
2022/05/14 01:33:04;;;;;;;17.83;7.57;;;11.80;99.90;;;;;;5035147;28;20189;-84
2022/05/14 01:35:34;;;;;;;20.90;7.70;;;11.80;99.90;;;;;;5035641;28;20198;-84
2022/05/14 01:37:59;;;;;;;18.80;7.97;;;11.60;99.90;;;;;;5033285;28;20219;-85
2022/05/14 01:40:25;;;;;;;13.90;8.00;;;11.70;99.90;;;;;;5036510;28;20178;-83
2022/05/14 01:42:50;;;;;;;18.47;7.57;;;11.60;99.90;;;;;;5034624;28;20526;-83
2022/05/14 01:45:16;;;;;;;18.00;7.60;;;11.50;99.90;;;;;;5035580;28;20178;-85
2022/05/14 01:47:41;;;;;;;18.07;8.93;;;11.50;99.90;;;;;;5017735;28;20259;-84
2022/05/14 01:50:08;;;;;;;23.43;8.87;;;11.60;99.90;;;;;;5018626;28;20174;-83
2022/05/14 01:52:33;;;;;;;13.90;7.47;;;11.60;99.90;;;;;;5034953;28;20332;-83
2022/05/14 01:54:59;;;;;;;19.53;7.40;;;11.60;99.90;;;;;;5017477;28;20752;-83
2022/05/14 01:57:24;;;;;;;23.57;7.77;;;11.60;99.90;;;;;;5017704;28;20261;-83
2022/05/14 01:59:50;;;;;;;20.07;8.13;;;11.70;99.90;;;;;;5018071;28;20696;-85
2022/05/14 02:02:15;;;;;;;19.87;7.80;;;11.60;99.90;;;;;;5016413;28;20670;-84
2022/05/14 02:04:41;;;;;;;18.37;7.67;;;11.40;99.90;;;;;;5017318;28;20186;-84
2022/05/14 02:07:06;;;;;;;17.80;7.57;;;11.40;99.90;;;;;;5017666;28;20283;-84
2022/05/14 02:09:32;;;;;;;23.10;7.93;;;11.40;99.90;;;;;;5017384;28;20178;-83
2022/05/14 02:11:57;;;;;;;15.00;6.93;;;11.30;99.90;;;;;;5034430;28;20245;-84
2022/05/14 02:14:23;;;;;;;17.17;7.70;;;11.30;99.90;;;;;;5034999;28;20258;-83
2022/05/14 02:16:49;;;;;;;15.17;7.53;;;11.30;99.90;;;;;;5034700;28;20287;-83
2022/05/14 02:19:14;;;;;;;16.33;6.83;;;11.20;99.90;;;;;;5017432;28;20677;-85
2022/05/14 02:21:40;;;;;;;19.63;7.97;;;11.20;99.90;;;;;;5034401;28;20178;-84
2022/05/14 02:24:05;;;;;;;20.53;6.80;;;11.20;99.90;;;;;;5017313;28;20207;-83
2022/05/14 02:26:32;;;;;;;18.37;7.73;;;11.10;99.90;;;;;;5016776;28;20175;-82
2022/05/14 02:28:57;;;;;;;15.77;6.87;;;11.30;99.90;;;;;;5034491;28;20174;-84
2022/05/14 02:31:23;;;;;;;13.23;6.73;;;11.30;99.90;;;;;;5033766;28;20296;-84
2022/05/14 02:33:49;;;;;;;19.80;6.70;;;11.30;99.90;;;;;;5016502;28;20196;-84
2022/05/14 02:36:15;;;;;;;20.43;7.33;;;11.30;99.90;;;;;;5033621;28;20213;-84
2022/05/14 02:38:41;;;;;;;18.10;6.90;;;11.30;99.90;;;;;;5031370;28;20540;-84
2022/05/14 02:41:07;;;;;;;20.23;7.20;;;11.20;99.90;;;;;;5033815;28;20709;-84
2022/05/14 02:43:34;;;;;;;14.17;6.63;;;11.20;99.90;;;;;;5015877;28;20203;-84
2022/05/14 02:46:03;;;;;;;16.43;6.30;;;11.20;99.90;;;;;;5033375;28;20523;-84
2022/05/14 02:48:29;;;;;;;18.87;6.30;;;11.30;99.90;;;;;;5033633;28;20182;-84
2022/05/14 02:50:57;;;;;;;22.73;6.17;;;11.30;99.90;;;;;;5034108;28;20183;-83
2022/05/14 02:53:23;;;;;;;14.37;6.07;;;11.40;99.90;;;;;;5015106;28;20212;-83
2022/05/14 02:55:48;;;;;;;14.30;5.80;;;11.50;99.90;;;;;;5015467;28;20204;-83
2022/05/14 02:59:06;;;;;;;16.93;6.13;;;11.40;99.90;;;;;;5033516;28;20170;-84
2022/05/14 03:00:59;;;;;;;14.73;6.27;;;11.40;99.90;;;;;;5033401;28;20181;-83
2022/05/14 03:03:26;;;;;;;17.90;5.50;;;11.50;99.90;;;;;;5033340;28;20558;-84
2022/05/14 03:05:51;;;;;;;13.97;5.40;;;11.60;99.90;;;;;;5034556;28;20511;-83
2022/05/14 03:08:17;;;;;;;12.70;5.43;;;11.40;99.90;;;;;;5034475;28;20230;-83
2022/05/14 03:10:42;;;;;;;18.17;5.53;;;11.50;99.90;;;;;;5034889;28;20264;-83
2022/05/14 03:13:08;;;;;;;15.97;5.30;;;11.50;99.90;;;;;;5032967;28;20228;-83
2022/05/14 03:15:34;;;;;;;11.93;5.13;;;11.60;99.90;;;;;;5033599;28;20207;-83
2022/05/14 03:18:00;;;;;;;17.90;5.67;;;11.60;99.90;;;;;;5016404;28;20223;-84
2022/05/14 03:20:26;;;;;;;14.43;5.57;;;11.60;99.90;;;;;;5034362;28;20208;-83
2022/05/14 03:22:52;;;;;;;19.60;5.23;;;11.60;99.90;;;;;;5015222;28;20199;-83
2022/05/14 03:25:18;;;;;;;16.13;5.60;;;11.50;99.90;;;;;;5015780;28;20224;-84
2022/05/14 03:27:43;;;;;;;13.27;4.97;;;11.60;99.90;;;;;;5033515;28;20208;-84
2022/05/14 03:30:09;;;;;;;11.20;5.40;;;11.60;99.90;;;;;;5034191;28;20170;-84
2022/05/14 03:32:35;;;;;;;11.23;5.10;;;11.50;99.90;;;;;;5033003;28;20196;-83
2022/05/14 03:35:02;;;;;;;18.73;6.63;;;11.60;99.90;;;;;;5016062;28;20287;-84
2022/05/14 03:37:27;;;;;;;14.53;5.27;;;11.60;99.90;;;;;;5033658;28;20198;-84
2022/05/14 03:39:53;;;;;;;16.83;5.63;;;11.60;99.90;;;;;;5031672;28;20169;-84
2022/05/14 03:42:19;;;;;;;13.50;5.30;;;11.60;99.90;;;;;;5030278;28;20186;-84
2022/05/14 03:44:44;;;;;;;17.27;5.83;;;11.50;99.90;;;;;;5014696;28;20181;-83
2022/05/14 03:47:10;;;;;;;16.40;5.00;;;11.40;99.90;;;;;;5015416;28;20710;-83
2022/05/14 03:49:35;;;;;;;13.20;5.13;;;11.50;99.90;;;;;;5037203;28;20173;-82
2022/05/14 03:54:29;;;;;;;12.37;5.33;;;11.40;99.90;;;;;;5055617;28;20204;-81
2022/05/14 03:56:55;;;;;;;19.53;5.87;;;11.40;99.90;;;;;;5039526;28;20576;-80
2022/05/14 03:59:20;;;;;;;12.20;5.20;;;11.40;99.90;;;;;;5039795;28;20283;-80
2022/05/14 04:01:46;;;;;;;12.63;5.13;;;11.30;99.90;;;;;;5039689;28;20189;-80
2022/05/14 04:04:12;;;;;;;14.67;5.13;;;11.30;99.90;;;;;;5038968;28;20165;-80
2022/05/14 04:06:37;;;;;;;13.23;5.13;;;11.30;99.90;;;;;;5040025;28;20282;-80
2022/05/14 04:09:03;;;;;;;21.37;6.10;;;11.30;99.90;;;;;;5039063;28;20208;-81
2022/05/14 04:11:29;;;;;;;20.10;5.33;;;11.40;99.90;;;;;;5039451;28;20199;-81
2022/05/14 04:13:56;;;;;;;15.07;5.27;;;11.30;99.90;;;;;;5040000;28;20176;-81
2022/05/14 04:16:22;;;;;;;18.53;5.40;;;11.40;99.90;;;;;;5039511;28;20230;-81
2022/05/14 04:18:47;;;;;;;18.30;5.27;;;11.40;99.90;;;;;;5039639;28;20260;-82
2022/05/14 04:21:13;;;;;;;17.80;5.13;;;11.40;99.90;;;;;;5038766;28;20630;-82
2022/05/14 04:23:39;;;;;;;14.20;5.07;;;11.50;99.90;;;;;;5038915;28;20168;-82
2022/05/14 04:26:05;;;;;;;10.83;4.87;;;11.60;99.90;;;;;;5039289;28;20266;-79
2022/05/14 04:28:31;;;;;;;11.43;5.10;;;11.60;99.90;;;;;;5038839;28;20264;-81
2022/05/14 04:30:57;;;;;;;18.77;5.17;;;11.70;99.90;;;;;;5039221;28;20233;-79
2022/05/14 04:33:24;;;;;;;15.70;5.30;;;11.70;99.90;;;;;;5039470;28;20204;-79
2022/05/14 04:35:50;;;;;;;13.03;4.57;;;11.80;99.90;;;;;;5039490;28;20246;-83
2022/05/14 04:38:16;;;;;;;17.37;4.90;;;11.80;99.90;;;;;;5038913;28;20169;-78
2022/05/14 04:40:42;;;;;;;10.50;4.40;;;11.80;99.90;;;;;;5039152;28;20243;-79
2022/05/14 04:43:12;;;;;;;13.83;4.80;;;11.80;99.90;;;;;;5039108;28;20170;-81
2022/05/14 04:45:39;;;;;;;11.23;4.97;;;11.90;99.90;;;;;;5038769;28;20189;-81
2022/05/14 04:48:06;;;;;;;12.17;4.60;;;12.00;99.90;;;;;;5039506;28;20646;-80
2022/05/14 04:50:32;;;;;;;13.30;4.53;;;12.20;99.90;;;;;;5038218;28;20203;-80
2022/05/14 04:52:59;;;;;;;12.27;4.53;;;12.40;99.90;;;;;;5037988;28;20185;-80
2022/05/14 04:55:25;;;;;;;10.97;4.30;;;12.50;99.90;;;;;;5038395;28;20228;-81
2022/05/14 04:57:51;;;;;;;11.90;4.27;;;12.60;99.90;;;;;;5038664;28;20173;-82
2022/05/14 05:00:17;;;;;;;14.77;4.43;;;12.50;99.90;;;;;;5037446;28;20663;-80
2022/05/14 05:05:29;;;;;;;10.90;4.73;;;12.50;99.90;;;;;;5056237;28;20253;-80
2022/05/14 05:07:55;;;;;;;11.23;4.70;;;12.50;99.90;;;;;;5038200;28;20223;-80
2022/05/14 05:10:20;;;;;;;13.80;5.43;;;12.50;99.90;;;;;;5038152;28;20248;-80
2022/05/14 05:12:46;;;;;;;19.33;5.00;;;12.60;99.90;;;;;;5038614;28;20544;-81
2022/05/14 05:15:12;;;;;;;15.37;5.47;;;12.70;99.90;;;;;;5038572;28;20198;-80
2022/05/14 05:17:38;;;;;;;12.53;4.90;;;12.70;99.90;;;;;;5038621;28;20172;-81
2022/05/14 05:20:05;;;;;;;10.77;5.30;;;12.80;99.90;;;;;;5038084;28;20321;-82
2022/05/14 05:22:31;;;;;;;19.47;5.40;;;13.00;99.90;;;;;;5038349;28;20177;-79
2022/05/14 05:24:57;;;;;;;11.67;4.97;;;12.90;99.90;;;;;;5038762;28;20191;-81
2022/05/14 05:27:23;;;;;;;13.70;5.47;;;12.80;99.90;;;;;;5037454;28;20180;-81
2022/05/14 05:29:49;;;;;;;14.77;5.30;;;12.80;99.90;;;;;;5038604;28;20195;-81
2022/05/14 05:32:15;;;;;;;13.67;5.23;;;12.90;99.90;;;;;;5038403;28;20172;-80
2022/05/14 05:34:41;;;;;;;20.00;6.07;;;12.80;99.90;;;;;;5038239;28;20656;-83
2022/05/14 05:37:07;;;;;;;13.33;5.43;;;12.80;99.90;;;;;;5038432;28;20549;-80
2022/05/14 05:39:33;;;;;;;16.03;5.93;;;12.80;99.90;;;;;;5038187;28;20262;-84
2022/05/14 05:41:58;;;;;;;10.93;4.90;;;12.80;99.90;;;;;;5055921;28;20269;-81
2022/05/14 05:44:27;;;;;;;11.30;5.50;;;12.90;99.90;;;;;;5037915;28;20275;-82
2022/05/14 05:46:54;;;;;;;15.50;5.53;;;12.80;99.90;;;;;;5037447;28;20255;-79
2022/05/14 05:49:20;;;;;;;14.33;5.30;;;12.80;99.90;;;;;;5037888;28;20202;-80
2022/05/14 05:51:46;;;;;;;14.90;5.20;;;12.90;99.90;;;;;;5037923;28;20215;-81
2022/05/14 05:56:59;;;;;;;13.87;5.30;;;13.20;99.90;;;;;;5055751;28;20213;-80
2022/05/14 05:59:27;;;;;;;15.23;5.73;;;13.30;99.90;;;;;;5037634;28;20530;-80
2022/05/14 06:01:53;;;;;;;14.17;5.17;;;13.30;99.90;;;;;;5037831;28;20177;-81
2022/05/14 06:04:21;;;;;;;12.47;4.90;;;13.60;99.90;;;;;;5037429;28;20555;-80
2022/05/14 06:06:47;;;;;;;10.97;4.50;;;14.00;99.90;;;;;;5038177;28;20596;-82
2022/05/14 06:09:17;;;;;;;13.57;4.40;;;14.30;99.90;;;;;;5037552;28;20267;-81
2022/05/14 06:11:44;;;;;;;16.90;4.90;;;14.50;99.90;;;;;;5036496;28;20197;-80
2022/05/14 06:14:10;;;;;;;13.90;4.80;;;14.60;99.90;;;;;;5038038;28;20181;-81
2022/05/14 06:16:36;;;;;;;15.93;4.90;;;14.60;99.90;;;;;;5037147;28;20197;-83
2022/05/14 06:19:01;;;;;;;9.90;4.47;;;14.40;99.90;;;;;;5038054;28;20612;-82
2022/05/14 06:21:27;;;;;;;16.23;5.00;;;14.50;99.90;;;;;;5037604;28;20193;-81
2022/05/14 06:23:54;;;;;;;12.20;4.90;;;14.80;99.90;;;;;;5036817;28;20184;-79
2022/05/14 06:26:20;;;;;;;13.07;4.80;;;15.10;99.90;;;;;;5037424;28;20181;-81
2022/05/14 06:28:46;;;;;;;16.63;4.50;;;15.20;99.90;;;;;;5036362;28;20185;-80
2022/05/14 06:31:12;;;;;;;12.60;4.93;;;15.50;99.90;;;;;;5036576;28;20204;-80
2022/05/14 06:33:37;;;;;;;10.70;4.47;;;15.80;99.90;;;;;;5037506;28;20173;-80
2022/05/14 06:36:03;;;;;;;11.70;4.33;;;15.70;99.90;;;;;;5037546;28;20201;-82
2022/05/14 06:38:29;;;;;;;13.70;4.53;;;16.00;99.90;;;;;;5036899;28;20645;-81
2022/05/14 06:40:55;;;;;;;13.87;4.67;;;15.90;99.90;;;;;;5036031;28;20224;-77
2022/05/14 06:43:21;;;;;;;10.67;4.40;;;15.60;99.90;;;;;;5036799;28;20181;-80
2022/05/14 06:45:46;;;;;;;15.57;5.27;;;16.10;99.90;;;;;;5036257;28;20276;-79
2022/05/14 06:48:13;;;;;;;18.37;5.40;;;16.30;99.90;;;;;;5036564;28;20182;-80
2022/05/14 06:50:45;;;;;;;15.38;4.90;;;16.50;99.90;;;;;;5036106;28;20200;-82
2022/05/14 06:53:12;;;;;;;16.13;5.55;;;16.70;99.90;;;;;;5035918;28;20197;-81
2022/05/14 06:55:40;;;;;;;13.68;5.28;;;16.60;99.90;;;;;;5036376;28;20204;-81
2022/05/14 06:58:10;;;;;;;13.73;5.10;;;16.70;99.90;;;;;;5036356;28;20174;-80
2022/05/14 07:00:35;;;;;;;10.88;4.38;;;16.70;99.90;;;;;;5036513;28;20194;-81
2022/05/14 07:08:30;;;;;;;12.82;4.88;;;16.90;99.90;;;;;;5054800;28;20281;-81
2022/05/14 07:10:55;;;;;;;9.77;4.70;;;17.00;99.90;;;;;;5035981;28;20288;-81
2022/05/14 07:13:21;;;;;;;17.85;5.35;;;17.30;99.90;;;;;;5037362;28;20268;-82
2022/05/14 07:15:47;;;;;;;15.93;5.40;;;17.40;99.90;;;;;;5036152;28;20198;-79
2022/05/14 07:18:12;;;;;;;12.32;5.07;;;17.50;99.90;;;;;;5036847;28;20169;-80
2022/05/14 07:20:38;;;;;;;12.45;4.60;;;17.60;99.90;;;;;;5036631;28;20185;-80
2022/05/14 07:23:04;;;;;;;11.65;5.20;;;17.60;99.90;;;;;;5035842;28;20184;-81
2022/05/14 07:25:29;;;;;;;18.70;5.68;;;17.40;99.90;;;;;;5036687;28;20177;-81
2022/05/14 07:27:55;;;;;;;15.02;5.97;;;17.50;99.90;;;;;;5036620;28;20173;-80
2022/05/14 07:30:21;;;;;;;18.10;5.50;;;17.80;99.90;;;;;;5036694;28;20665;-82
2022/05/14 07:32:47;;;;;;;16.95;5.70;;;17.80;99.90;;;;;;5036349;28;20227;-80
2022/05/14 07:35:13;;;;;;;12.65;5.22;;;18.10;99.90;;;;;;5036562;28;20243;-80
2022/05/14 07:37:45;;;;;;;13.95;5.75;;;18.60;98.90;;;;;;5035862;28;20173;-80
2022/05/14 07:40:15;;;;;;;14.10;5.72;;;18.50;98.90;;;;;;5034453;28;20669;-79
2022/05/14 07:42:53;;;;;;;15.82;5.15;;;18.70;98.20;;;;;;5034652;28;20173;-79
2022/05/14 07:45:27;;;;;;;20.08;6.00;;;18.80;99.10;;;;;;5035658;28;20173;-80
2022/05/14 07:47:55;;;;;;;16.17;5.90;;;19.20;98.20;;;;;;5036394;28;20521;-79
2022/05/14 07:50:22;;;;;;;13.73;6.35;;;19.50;97.50;;;;;;5035769;28;20236;-79
2022/05/14 07:52:47;;;;;;;13.52;5.95;;;19.30;97.50;;;;;;5035331;28;20185;-81
2022/05/14 07:55:13;;;;;;;18.33;5.65;;;19.60;96.40;;;;;;5035946;28;20200;-80
2022/05/14 07:57:39;;;;;;;14.82;5.38;;;20.00;96.20;;;;;;5036236;28;20573;-79
2022/05/14 08:00:06;;;;;;;13.75;5.72;;;19.90;95.90;;;;;;5036358;28;20730;-82
2022/05/14 08:02:34;;;;;;;11.27;5.40;;;19.60;97.30;;;;;;5035409;28;20545;-80
2022/05/14 08:05:09;;;;;;;14.57;5.28;;;19.80;97.30;;;;;;5035392;28;20193;-82
2022/05/14 08:07:35;;;;;;;18.67;5.90;;;20.60;96.20;;;;;;5035644;28;20172;-81
2022/05/14 08:10:01;;;;;;;16.45;6.55;;;20.00;96.20;;;;;;5035887;28;20185;-82
2022/05/14 08:12:34;;;;;;;18.70;5.82;;;19.90;96.20;;;;;;5035183;28;20184;-78
2022/05/14 08:14:59;;;;;;;17.30;5.82;;;19.70;96.20;;;;;;5034927;28;20169;-78
2022/05/14 08:17:26;;;;;;;20.13;5.97;;;20.00;96.20;;;;;;5036607;28;20180;-79
2022/05/14 08:19:52;;;;;;;18.13;6.07;;;20.20;95.70;;;;;;5035481;28;20193;-79
2022/05/14 08:25:02;;;;;;;19.65;6.20;;;21.00;95.40;;;;;;5053570;28;20227;-79
2022/05/14 08:27:27;;;;;;;15.15;5.47;;;21.20;94.30;;;;;;5053971;28;20564;-79
2022/05/14 08:29:53;;;;;;;24.33;6.10;;;20.60;94.30;;;;;;5035633;28;20265;-79
2022/05/14 08:32:20;;;;;;;16.88;6.00;;;20.50;95.80;;;;;;5035188;28;20349;-80
2022/05/14 08:34:46;;;;;;;19.58;6.32;;;20.80;95.40;;;;;;5036500;28;20170;-80
2022/05/14 08:37:12;;;;;;;19.10;6.50;;;21.60;94.20;;;;;;5039096;28;20209;-79
2022/05/14 08:39:38;;;;;;;13.77;6.70;;;21.00;94.30;;;;;;5038220;28;20587;-79
2022/05/14 08:42:08;;;;;;;18.17;5.93;;;21.50;93.50;;;;;;5038904;28;20175;-81
2022/05/14 08:44:34;;;;;;;16.75;6.38;;;21.10;94.50;;;;;;5039460;28;20170;-81
2022/05/14 08:47:04;;;;;;;18.95;5.80;;;21.20;94.20;;;;;;5039223;28;20555;-77
2022/05/14 08:49:47;;;;;;;17.88;4.85;;;21.60;94.70;;;;;;5038498;28;20593;-80
2022/05/14 08:52:20;;;;;;;16.63;5.53;;;22.20;92.30;;;;;;5056213;28;20170;-79
2022/05/14 08:54:46;;;;;;;17.70;5.63;;;22.00;92.20;;;;;;5038470;28;20216;-81
2022/05/14 08:57:30;;;;;;;12.60;5.80;;;21.30;92.60;;;;;;5038715;28;20733;-83
2022/05/14 09:00:00;;;;;;;15.18;5.75;;;22.30;93.70;;;;;;5038878;28;20189;-80
2022/05/14 09:02:30;;;;;;;17.70;5.97;;;22.30;91.00;;;;;;5039144;28;20169;-80
2022/05/14 09:05:03;;;;;;;14.50;5.65;;;21.70;92.50;;;;;;5039679;28;20177;-80
2022/05/14 09:07:28;;;;;;;18.27;5.00;;;21.60;92.10;;;;;;5038978;28;20173;-80
2022/05/14 09:09:57;;;;;;;19.17;5.40;;;22.00;92.90;;;;;;5037948;28;20200;-78
2022/05/14 09:12:27;;;;;;;18.50;5.68;;;22.50;91.80;;;;;;5037952;28;20260;-78
2022/05/14 09:15:00;;;;;;;19.70;5.55;;;22.30;91.10;;;;;;5038412;28;20176;-78
2022/05/14 09:17:29;;;;;;;14.95;4.50;;;22.50;91.60;;;;;;5038559;28;20604;-79
2022/05/14 09:19:57;;;;;;;15.27;4.03;;;22.70;90.40;;;;;;5038427;28;20189;-79
2022/05/14 09:22:22;;;;;;;15.50;4.30;;;22.60;87.70;;;;;;5038384;28;20534;-78
2022/05/14 09:24:54;;;;;;;15.60;4.80;;;22.20;88.50;;;;;;5038693;28;20171;-80
2022/05/14 09:27:33;;;;;;;14.70;4.85;;;23.00;89.30;;;;;;5038013;28;20703;-79
2022/05/14 09:30:03;;;;;;;17.80;4.97;;;23.40;87.00;;;;;;5039231;28;20215;-80
2022/05/14 09:32:40;;;;;;;18.20;5.35;;;23.40;87.30;;;;;;5039754;28;20177;-78
2022/05/14 09:35:16;;;;;;;13.07;4.22;;;22.70;88.30;;;;;;5038040;28;20180;-78
2022/05/14 09:37:42;;;;;;;18.98;4.55;;;22.90;86.30;;;;;;5037891;28;20169;-80
2022/05/14 09:40:12;;;;;;;13.63;4.43;;;22.90;87.20;;;;;;5037534;28;20657;-80
2022/05/14 09:42:42;;;;;;;15.80;4.32;;;23.10;85.30;;;;;;5050804;23;20213;-81
2022/05/14 09:45:39;;;;;;;14.23;4.85;;;23.70;85.60;;;;;;5053880;28;20162;-81
2022/05/14 09:48:20;;;;;;;18.52;4.88;;;24.00;86.10;;;;;;5026248;28;20205;-81
2022/05/14 09:50:51;;;;;;;20.35;5.38;;;23.90;86.30;;;;;;5056659;28;20649;-82
2022/05/14 09:53:30;;;;;;;18.58;5.40;;;23.00;86.10;;;;;;5037772;28;20234;-82
2022/05/14 09:56:17;;;;;;;14.65;5.15;;;22.60;85.80;;;;;;5046403;22;20279;-81
2022/05/14 09:59:10;;;;;;;16.40;4.78;;;23.30;85.50;;;;;;5039011;28;20629;-83
2022/05/14 10:01:49;;;;;;;14.40;4.43;;;23.40;86.60;;;;;;5038736;28;20612;-81
2022/05/14 10:04:44;;;;;;;16.02;3.70;;;23.40;82.10;;;;;;5040346;28;20168;-83
2022/05/14 10:08:05;;;;;;;10.05;3.80;;;23.30;83.20;;;;;;5039413;28;20169;-82
2022/05/14 10:10:59;;;;;;;17.73;5.88;;;22.90;84.00;;;;;;5025068;28;20205;-82
2022/05/14 10:13:28;;;;;;;16.10;4.45;;;23.80;82.70;;;;;;5037387;28;20480;-83
2022/05/14 10:16:10;;;;;;;17.80;5.03;;;23.80;85.60;;;;;;5038701;28;20606;-82
2022/05/14 10:18:42;;;;;;;9.73;3.97;;;23.20;85.10;;;;;;5037765;28;20176;-83
2022/05/14 10:21:16;;;;;;;13.32;4.88;;;23.00;85.70;;;;;;5037342;28;20533;-82
2022/05/14 10:27:05;;;;;;;17.98;5.13;;;24.30;82.70;;;;;;5058052;28;20184;-83
2022/05/14 10:29:55;;;;;;;15.43;4.85;;;23.40;83.40;;;;;;5037942;28;20265;-83
2022/05/14 10:32:24;;;;;;;16.15;4.28;;;23.40;83.60;;;;;;5039437;28;20178;-83
2022/05/14 10:35:17;;;;;;;12.48;4.20;;;23.20;85.50;;;;;;5057477;28;20702;-83
2022/05/14 10:37:53;;;;;;;17.98;5.38;;;23.70;83.50;;;;;;5040126;28;20192;-84
2022/05/14 10:40:38;;;;;;;17.70;4.20;;;24.00;83.50;;;;;;5040568;28;20630;-83
2022/05/14 10:43:38;;;;;;;20.05;4.20;;;24.60;80.60;;;;;;5041321;28;20583;-83
2022/05/14 10:46:17;;;;;;;12.77;3.70;;;23.80;82.60;;;;;;5040084;28;20655;-82
2022/05/14 10:49:15;;;;;;;12.68;3.78;;;23.20;80.30;;;;;;5040507;28;20529;-82
2022/05/14 10:51:45;;;;;;;18.42;5.00;;;24.10;81.30;;;;;;5042312;28;20381;-82
2022/05/14 10:54:23;;;;;;;18.83;4.15;;;23.80;78.90;;;;;;5042362;28;20184;-84
2022/05/14 10:56:55;;;;;;;14.70;4.35;;;23.00;82.00;;;;;;5042449;28;20208;-82
2022/05/14 10:59:39;;;;;;;12.95;3.83;;;22.80;85.10;;;;;;5038944;28;20634;-81
2022/05/14 11:02:12;;;;;;;13.95;4.10;;;23.20;85.10;;;;;;5039924;28;20181;-82
2022/05/14 11:04:40;;;;;;;12.80;4.43;;;23.90;83.70;;;;;;5039529;28;20165;-83
2022/05/14 11:07:09;;;;;;;13.70;3.80;;;23.30;81.60;;;;;;5038186;28;20173;-83
2022/05/14 11:09:49;;;;;;;14.93;3.70;;;23.60;81.30;;;;;;5036468;28;20174;-82
2022/05/14 11:12:32;;;;;;;15.13;4.68;;;22.70;84.70;;;;;;5054140;28;20162;-82
2022/05/14 11:15:00;;;;;;;13.50;4.32;;;22.50;83.20;;;;;;5036077;28;20190;-81
2022/05/14 11:17:30;;;;;;;16.73;3.80;;;22.80;83.00;;;;;;5036363;28;20165;-83
2022/05/14 11:20:02;;;;;;;10.75;3.95;;;22.40;84.60;;;;;;5035349;28;20199;-81
2022/05/14 11:22:49;;;;;;;22.40;4.60;;;23.50;84.90;;;;;;5035533;28;20595;-82
2022/05/14 11:25:20;;;;;;;22.13;7.30;;;22.90;81.40;;;;;;5036104;28;20180;-82
2022/05/14 11:28:05;;;;;;;9.38;3.60;;;22.10;82.70;;;;;;5035999;28;20639;-82
2022/05/14 11:30:41;;;;;;;17.88;4.00;;;22.00;81.80;;;;;;5032351;28;20193;-82
2022/05/14 11:33:24;;;;;;;13.10;3.53;;;22.40;82.20;;;;;;5034169;28;20173;-82
2022/05/14 11:35:52;;;;;;;12.95;3.53;;;23.50;77.60;;;;;;5035507;28;20680;-82
2022/05/14 11:38:24;;;;;;;11.48;3.42;;;24.40;77.00;;;;;;5034199;28;20173;-82
2022/05/14 11:40:59;;;;;;;13.30;3.03;;;23.10;80.40;;;;;;5033927;28;20185;-81
2022/05/14 11:43:34;;;;;;;16.10;3.50;;;23.40;81.10;;;;;;5031881;28;20263;-81
2022/05/14 11:46:22;;;;;;;17.25;3.80;;;24.40;77.00;;;;;;5034253;28;20172;-81
2022/05/14 11:48:53;;;;;;;14.02;3.85;;;25.20;76.90;;;;;;5034947;28;20204;-81
2022/05/14 11:51:33;;;;;;;11.55;3.50;;;25.00;77.00;;;;;;5034099;28;20673;-81
2022/05/14 11:54:08;;;;;;;12.93;3.30;;;24.40;76.20;;;;;;5033714;28;20268;-82
2022/05/14 11:57:01;;;;;;;12.10;3.40;;;24.40;78.40;;;;;;5033677;28;20354;-82
2022/05/14 11:59:52;;;;;;;14.90;3.67;;;24.00;77.00;;;;;;5033681;28;20161;-81
2022/05/14 12:02:34;;;;;;;10.35;4.20;;;23.30;78.60;;;;;;5034599;28;20169;-82
2022/05/14 12:05:00;;;;;;;14.32;3.40;;;22.90;79.10;;;;;;5033882;28;20173;-81
2022/05/14 12:07:50;;;;;;;14.77;3.03;;;22.50;79.30;;;;;;5033653;28;20177;-82
2022/05/14 12:10:25;;;;;;;11.27;3.22;;;22.90;78.80;;;;;;5035063;28;20238;-81
2022/05/14 12:13:13;;;;;;;8.80;3.38;;;23.80;77.40;;;;;;5038892;28;20175;-81
2022/05/14 12:15:54;;;;;;;12.02;3.72;;;24.30;78.30;;;;;;5056323;28;20177;-83
2022/05/14 12:18:20;;;;;;;12.63;3.80;;;23.30;78.10;;;;;;5039177;28;20614;-83
2022/05/14 12:20:56;;;;;;;13.55;3.25;;;22.60;77.20;;;;;;5038007;28;20657;-83
2022/05/14 12:23:31;;;;;;;9.85;3.47;;;22.40;79.10;;;;;;5038313;28;20172;-81
2022/05/14 12:25:57;;;;;;;14.15;3.65;;;22.00;81.30;;;;;;5037014;28;20173;-83
2022/05/14 12:28:33;;;;;;;16.63;4.03;;;22.10;79.90;;;;;;5038059;28;20169;-82
2022/05/14 12:34:02;;;;;;;16.55;3.65;;;21.70;80.30;;;;;;5057124;28;20175;-82
2022/05/14 12:36:34;;;;;;;15.55;3.45;;;22.30;81.40;;;;;;5037832;28;20201;-83
2022/05/14 12:39:03;;;;;;;13.07;3.33;;;22.30;79.50;;;;;;5038328;28;20181;-83
2022/05/14 12:41:39;;;;;;;18.08;3.70;;;22.60;79.40;;;;;;5037650;28;20597;-83
2022/05/14 12:44:12;;;;;;;10.55;3.72;;;22.60;79.00;;;;;;5037862;28;20633;-83
2022/05/14 12:46:42;;;;;;;17.33;3.55;;;23.00;78.50;;;;;;5037950;28;20182;-82
2022/05/14 12:49:19;;;;;;;13.15;3.33;;;23.50;79.30;;;;;;5038492;28;20184;-84
2022/05/14 12:51:55;;;;;;;11.93;3.22;;;23.30;76.90;;;;;;5037296;28;20247;-82
2022/05/14 12:54:30;;;;;;;15.82;3.28;;;23.10;78.70;;;;;;5038313;28;20284;-83
2022/05/14 12:57:01;;;;;;;10.52;3.30;;;23.40;79.00;;;;;;5021857;28;20237;-83
2022/05/14 12:59:27;;;;;;;13.45;3.53;;;23.40;78.70;;;;;;5037732;28;20189;-82
2022/05/14 13:01:59;;;;;;;8.73;3.10;;;23.50;78.30;;;;;;5037868;28;20227;-83
2022/05/14 13:04:40;;;;;;;12.13;3.17;;;23.60;75.90;;;;;;5037836;28;20207;-84
2022/05/14 13:07:09;;;;;;;11.02;3.22;;;23.50;75.60;;;;;;5038168;28;20219;-83
2022/05/14 13:09:36;;;;;;;15.02;3.78;;;23.10;77.90;;;;;;5038661;28;20230;-83
2022/05/14 13:12:02;;;;;;;11.80;3.50;;;22.50;77.60;;;;;;5039011;28;20185;-83
2022/05/14 13:14:37;;;;;;;10.45;3.30;;;22.50;78.70;;;;;;5037384;28;20173;-82
2022/05/14 13:17:06;;;;;;;14.10;3.53;;;22.60;76.60;;;;;;5037870;28;20662;-83
2022/05/14 13:19:38;;;;;;;10.60;3.10;;;22.90;76.10;;;;;;5037991;28;20642;-82